Time;durP1;ratioP1;P1;durP2;ratioP2;P2;SDS_P1;SDS_P2;PMS_P1;PMS_P2;Temp;Humidity;BMP_temperature;BMP_pressure;BME280_temperature;BME280_humidity;BME280_pressure;Samples;Min_cycle;Max_cycle;Signal;HPM_P1;HPM_P2
2021/03/19 00:00:21;;;;;;;11.48;6.78;;;;;;;1.69;96.66;98485.18;1697264;84;21331;-62
2021/03/19 00:02:52;;;;;;;10.70;7.30;;;;;;;1.75;96.61;98493.03;1697526;83;21165;-61
2021/03/19 00:05:23;;;;;;;9.55;7.10;;;;;;;1.74;96.34;98487.49;1697169;84;21185;-62
2021/03/19 00:07:54;;;;;;;10.95;7.47;;;;;;;1.68;96.28;98487.24;1697260;84;21201;-61
2021/03/19 00:10:30;;;;;;;11.25;6.78;;;;;;;1.68;96.54;98484.32;1697327;83;21182;-63
2021/03/19 00:13:09;;;;;;;10.10;6.62;;;;;;;1.67;96.46;98477.89;1697278;84;21178;-64
2021/03/19 00:15:39;;;;;;;10.60;7.30;;;;;;;1.64;96.59;98479.05;1697415;83;21146;-62
2021/03/19 00:18:08;;;;;;;12.28;7.45;;;;;;;1.64;96.53;98479.91;1697340;84;21316;-64
2021/03/19 00:20:41;;;;;;;11.20;7.33;;;;;;;1.67;96.61;98465.17;1697345;83;21320;-65
2021/03/19 00:23:09;;;;;;;11.57;7.62;;;;;;;1.62;96.28;98475.58;1697435;84;21134;-61
2021/03/19 00:25:40;;;;;;;9.63;6.55;;;;;;;1.62;96.54;98468.80;1697328;83;21328;-65
2021/03/19 00:28:16;;;;;;;10.82;6.80;;;;;;;1.61;96.54;98475.13;1697535;84;21190;-63
2021/03/19 00:30:46;;;;;;;9.55;6.45;;;;;;;1.63;96.49;98468.39;1697295;84;21227;-65
2021/03/19 00:33:15;;;;;;;10.32;6.50;;;;;;;1.64;96.61;98472.69;1697490;83;21130;-62
2021/03/19 00:35:44;;;;;;;10.28;7.00;;;;;;;1.67;96.50;98482.98;1697637;84;21130;-63
2021/03/19 00:38:12;;;;;;;9.63;6.60;;;;;;;1.67;96.31;98476.62;1697405;84;21165;-61
2021/03/19 00:40:41;;;;;;;9.10;5.95;;;;;;;1.66;96.23;98473.21;1697552;84;21312;-62
2021/03/19 00:43:12;;;;;;;12.13;6.70;;;;;;;1.67;96.26;98476.20;1697520;84;21161;-64
2021/03/19 00:45:39;;;;;;;10.60;6.58;;;;;;;1.68;96.13;98474.52;1697262;84;21197;-62
2021/03/19 00:48:08;;;;;;;9.45;6.72;;;;;;;1.66;95.92;98474.90;1697322;83;21316;-64
2021/03/19 00:50:41;;;;;;;10.28;6.53;;;;;;;1.62;96.04;98475.58;1701610;83;21323;-63
2021/03/19 00:53:10;;;;;;;10.00;6.50;;;;;;;1.58;96.00;98474.60;1733747;83;21555;-61
2021/03/19 00:55:39;;;;;;;9.98;6.67;;;;;;;1.55;96.07;98469.78;1733303;83;21170;-63
2021/03/19 00:58:07;;;;;;;9.70;6.65;;;;;;;1.51;96.07;98470.95;1733275;83;21305;-62
2021/03/19 01:00:37;;;;;;;11.48;6.78;;;;;;;1.55;96.25;98469.37;1733569;83;21305;-64
2021/03/19 01:03:06;;;;;;;9.70;6.55;;;;;;;1.58;96.05;98465.70;1733540;83;21151;-65
2021/03/19 01:05:38;;;;;;;10.03;6.85;;;;;;;1.60;96.17;98469.55;1733539;83;21557;-66
2021/03/19 01:08:07;;;;;;;;;;;;;;;1.62;96.12;98466.67;1736196;83;21558;-63
2021/03/19 01:10:40;;;;;;;12.43;7.30;;;;;;;1.66;96.18;98470.67;1733564;83;20247;-63
2021/03/19 01:13:09;;;;;;;10.63;6.83;;;;;;;1.69;96.05;98475.01;1733236;83;21190;-63
2021/03/19 01:15:38;;;;;;;10.00;6.78;;;;;;;1.69;95.83;98475.87;1733444;83;21378;-64
2021/03/19 01:18:12;;;;;;;10.82;7.17;;;;;;;1.65;95.61;98472.73;1733364;83;21154;-62
2021/03/19 01:20:43;;;;;;;11.55;7.20;;;;;;;1.63;95.67;98467.13;1733329;83;21171;-61
2021/03/19 01:23:12;;;;;;;11.78;7.53;;;;;;;1.59;95.70;98469.11;1733253;83;21178;-62
2021/03/19 01:25:40;;;;;;;11.65;8.00;;;;;;;1.54;95.74;98477.83;1733243;83;21337;-62
2021/03/19 01:28:08;;;;;;;11.28;7.00;;;;;;;1.61;96.14;98478.94;1733251;83;21320;-63
2021/03/19 01:30:39;;;;;;;9.95;7.08;;;;;;;1.66;96.05;98479.98;1733452;83;21167;-62
2021/03/19 01:33:07;;;;;;;10.43;6.83;;;;;;;1.71;96.01;98475.94;1733457;83;21349;-65
2021/03/19 01:35:39;;;;;;;9.23;6.12;;;;;;;1.71;95.73;98473.39;1733219;83;21431;-64
2021/03/19 01:38:11;;;;;;;14.58;7.22;;;;;;;1.69;95.46;98480.95;1733621;83;21547;-62
2021/03/19 01:40:46;;;;;;;9.60;6.85;;;;;;;1.65;95.55;98473.14;1733330;83;21316;-62
2021/03/19 01:43:36;;;;;;;9.23;6.28;;;;;;;1.64;95.50;98476.51;1733242;83;21163;-64
2021/03/19 01:47:00;;;;;;;9.98;6.92;;;;;;;1.55;95.28;98473.59;1723800;83;21135;-67
2021/03/19 01:50:24;;;;;;;11.53;7.78;;;;;;;1.48;95.55;98477.60;1733561;83;21322;-65
2021/03/19 01:53:48;;;;;;;11.20;8.05;;;;;;;1.47;95.66;98481.80;1675471;84;21201;-64
2021/03/19 01:57:12;;;;;;;11.22;7.47;;;;;;;1.37;95.70;98479.70;1699538;83;21299;-64
2021/03/19 02:00:36;;;;;;;11.50;8.40;;;;;;;1.33;95.83;98480.41;1699682;84;21161;-67
2021/03/19 02:04:00;;;;;;;11.78;8.85;;;;;;;1.31;96.11;98487.09;1699785;83;21308;-67
2021/03/19 02:07:24;;;;;;;12.93;8.95;;;;;;;1.34;96.30;98487.62;1699484;84;21299;-65
2021/03/19 02:10:48;;;;;;;11.40;7.15;;;;;;;1.36;96.21;98486.02;1699778;84;21308;-64
2021/03/19 02:14:12;;;;;;;12.05;8.70;;;;;;;1.35;96.09;98486.80;1699425;83;21178;-64
2021/03/19 02:17:36;;;;;;;10.43;7.15;;;;;;;1.30;96.17;98485.38;1699896;84;21169;-61
2021/03/19 02:21:00;;;;;;;12.80;8.50;;;;;;;1.30;96.25;98487.91;1699819;83;21299;-65
2021/03/19 02:24:24;;;;;;;12.47;7.95;;;;;;;1.22;96.18;98493.07;1699774;84;21311;-64
2021/03/19 02:27:37;;;;;;;11.75;8.03;;;;;;;1.19;96.36;98490.00;1699661;83;21157;-63
2021/03/19 02:31:01;;;;;;;11.05;7.90;;;;;;;1.18;96.45;98487.42;1666966;84;21173;-64
2021/03/19 02:33:28;;;;;;;10.23;6.83;;;;;;;1.17;96.80;98498.38;1699663;83;21157;-61
2021/03/19 02:36:00;;;;;;;9.95;7.35;;;;;;;1.18;96.67;98486.15;1699437;84;21173;-62
2021/03/19 02:38:28;;;;;;;9.43;7.03;;;;;;;1.12;96.58;98497.32;1699733;84;21186;-63
2021/03/19 02:40:56;;;;;;;12.68;7.87;;;;;;;1.07;96.87;98496.75;1699485;83;21186;-63
2021/03/19 02:43:25;;;;;;;10.85;7.90;;;;;;;1.11;97.01;98498.14;1699701;84;21185;-61
2021/03/19 02:45:53;;;;;;;11.33;8.70;;;;;;;1.14;97.21;98503.34;1699509;83;21158;-65
2021/03/19 02:48:21;;;;;;;11.63;8.45;;;;;;;1.15;97.10;98500.88;1699700;83;21312;-62
2021/03/19 02:50:51;;;;;;;10.98;8.15;;;;;;;1.15;97.19;98504.69;1699483;84;21170;-61
2021/03/19 02:53:24;;;;;;;13.45;9.23;;;;;;;1.15;96.98;98502.14;1697411;83;21339;-63
2021/03/19 02:55:52;;;;;;;12.58;9.10;;;;;;;1.13;97.01;98506.70;1697518;84;21153;-66
2021/03/19 02:58:20;;;;;;;13.95;9.70;;;;;;;1.15;97.17;98512.72;1697444;83;21153;-62
2021/03/19 03:00:48;;;;;;;11.33;8.05;;;;;;;1.18;97.27;98507.75;1697333;84;21164;-65
2021/03/19 03:03:18;;;;;;;13.68;9.90;;;;;;;1.24;97.25;98511.80;1697224;83;21324;-62
2021/03/19 03:05:47;;;;;;;16.50;9.53;;;;;;;1.25;96.97;98517.37;1697240;83;21161;-65
2021/03/19 03:08:19;;;;;;;12.07;9.43;;;;;;;1.24;97.05;98521.55;1697485;84;21170;-61
2021/03/19 03:10:51;;;;;;;13.25;10.05;;;;;;;1.24;96.91;98518.16;1697364;84;21271;-61
2021/03/19 03:13:19;;;;;;;13.25;9.75;;;;;;;1.23;96.89;98524.05;1697571;83;21735;-65
2021/03/19 03:15:48;;;;;;;12.65;9.10;;;;;;;1.24;96.81;98525.38;1697239;84;21308;-60
2021/03/19 03:18:16;;;;;;;13.05;9.45;;;;;;;1.21;96.63;98523.13;1697248;84;21295;-61
2021/03/19 03:20:55;;;;;;;14.05;9.48;;;;;;;1.20;96.84;98530.30;1697245;84;21189;-63
2021/03/19 03:23:27;;;;;;;12.33;8.53;;;;;;;1.22;96.81;98527.38;1697294;84;21315;-63
2021/03/19 03:25:55;;;;;;;;;;;;;;;1.29;97.00;98531.50;1699688;84;21588;-60
2021/03/19 03:28:25;;;;;;;13.98;9.08;;;;;;;1.35;96.83;98524.94;1697404;83;20245;-62
2021/03/19 03:30:58;;;;;;;14.23;9.88;;;;;;;1.36;96.68;98535.17;1697522;83;21149;-60
2021/03/19 03:33:26;;;;;;;13.18;8.75;;;;;;;1.38;96.59;98532.30;1697546;84;21719;-62
2021/03/19 03:35:55;;;;;;;12.70;8.48;;;;;;;1.34;96.11;98532.97;1697195;84;21312;-61
2021/03/19 03:38:26;;;;;;;15.28;10.38;;;;;;;1.28;96.10;98535.28;1697150;83;21157;-63
2021/03/19 03:41:05;;;;;;;15.30;10.25;;;;;;;1.28;96.25;98531.47;1697197;83;21170;-63
2021/03/19 03:43:35;;;;;;;13.18;9.55;;;;;;;1.20;95.97;98534.97;1697401;84;21130;-65
2021/03/19 03:46:06;;;;;;;12.68;8.78;;;;;;;1.15;96.09;98540.27;1697450;84;21162;-60
2021/03/19 03:48:36;;;;;;;13.85;9.53;;;;;;;1.16;96.41;98536.91;1697369;83;21244;-63
2021/03/19 03:51:07;;;;;;;13.10;9.55;;;;;;;1.19;96.32;98538.70;1697470;83;21316;-63
2021/03/19 03:53:37;;;;;;;13.72;9.50;;;;;;;1.21;96.28;98533.28;1697407;84;21134;-63
2021/03/19 03:56:08;;;;;;;14.23;10.03;;;;;;;1.23;96.50;98531.68;1697609;84;21169;-66
2021/03/19 03:58:36;;;;;;;13.83;8.68;;;;;;;1.24;96.22;98534.27;1666358;86;21333;-62
2021/03/19 04:01:05;;;;;;;14.50;9.63;;;;;;;1.19;96.13;98529.81;1666224;85;21335;-60
2021/03/19 04:03:34;;;;;;;15.08;9.60;;;;;;;1.18;96.24;98528.08;1666251;86;21320;-60
2021/03/19 04:06:04;;;;;;;13.08;8.88;;;;;;;1.22;96.36;98532.47;1666306;85;21174;-64
2021/03/19 04:08:33;;;;;;;11.75;8.63;;;;;;;1.22;96.13;98540.09;1697313;84;21178;-61
2021/03/19 04:11:06;;;;;;;14.43;8.55;;;;;;;1.21;96.05;98526.52;1697624;84;21157;-64
2021/03/19 04:13:35;;;;;;;12.78;8.70;;;;;;;1.15;95.91;98535.18;1697594;84;21308;-60
2021/03/19 04:16:03;;;;;;;12.60;9.23;;;;;;;1.11;96.12;98534.98;1697619;84;21134;-61
2021/03/19 04:18:32;;;;;;;11.57;7.80;;;;;;;1.07;96.16;98536.14;1697495;84;21161;-61
2021/03/19 04:21:07;;;;;;;13.30;9.28;;;;;;;1.03;96.08;98532.13;1697375;83;21126;-61
2021/03/19 04:23:39;;;;;;;14.20;8.88;;;;;;;0.99;96.41;98537.50;1697353;84;21162;-63
2021/03/19 04:26:24;;;;;;;11.43;8.23;;;;;;;1.01;96.47;98545.16;1697345;84;21355;-62
2021/03/19 04:28:53;;;;;;;12.20;9.20;;;;;;;1.02;96.51;98545.24;1697444;84;21296;-63
2021/03/19 04:31:21;;;;;;;12.43;8.65;;;;;;;1.04;96.40;98541.09;1697530;84;21142;-61
2021/03/19 04:33:50;;;;;;;11.68;8.38;;;;;;;1.05;96.23;98551.72;1697289;83;21336;-63
2021/03/19 04:36:27;;;;;;;13.18;8.88;;;;;;;1.06;96.37;98538.19;1697359;84;21183;-62
2021/03/19 04:39:01;;;;;;;12.45;8.90;;;;;;;1.05;96.21;98541.55;1678216;84;21366;-63
2021/03/19 04:41:32;;;;;;;13.53;9.45;;;;;;;1.04;96.31;98546.18;1666392;84;21135;-62
2021/03/19 04:44:02;;;;;;;14.13;10.28;;;;;;;1.04;96.10;98548.72;1666277;84;21169;-63
2021/03/19 04:46:29;;;;;;;14.35;9.50;;;;;;;1.06;96.45;98548.36;1645329;84;21329;-56
2021/03/19 04:48:58;;;;;;;13.70;9.28;;;;;;;1.04;96.06;98551.27;1666222;85;21328;-56
2021/03/19 04:51:25;;;;;;;14.70;9.58;;;;;;;0.99;96.11;98550.58;1666441;84;21150;-61
2021/03/19 04:53:54;;;;;;;13.70;9.93;;;;;;;0.95;96.37;98543.24;1666629;83;21170;-63
2021/03/19 04:56:22;;;;;;;15.63;10.60;;;;;;;1.02;96.48;98551.59;1666175;84;21340;-65
2021/03/19 04:58:51;;;;;;;13.98;10.50;;;;;;;1.06;96.28;98550.90;1666439;86;21300;-64
2021/03/19 05:01:20;;;;;;;16.32;10.03;;;;;;;1.07;96.18;98545.44;1666159;84;21190;-62
2021/03/19 05:03:49;;;;;;;14.35;10.40;;;;;;;1.06;96.22;98555.98;1666180;84;21320;-65
2021/03/19 05:06:18;;;;;;;15.08;9.88;;;;;;;1.05;95.96;98552.98;1666177;84;21316;-62
2021/03/19 05:08:48;;;;;;;15.45;11.00;;;;;;;1.05;96.09;98549.17;1674197;84;21181;-65
2021/03/19 05:11:17;;;;;;;17.35;11.12;;;;;;;1.06;95.93;98550.90;1696356;84;21193;-63
2021/03/19 05:13:47;;;;;;;15.67;10.73;;;;;;;1.05;95.83;98555.94;1695903;84;21142;-64
2021/03/19 05:16:16;;;;;;;15.18;9.93;;;;;;;1.05;95.94;98555.53;1695694;84;21554;-65
2021/03/19 05:18:44;;;;;;;14.03;10.90;;;;;;;1.07;95.84;98562.81;1695761;84;21143;-64
2021/03/19 05:21:12;;;;;;;13.88;9.40;;;;;;;1.13;95.76;98553.30;1696070;85;21126;-65
2021/03/19 05:23:40;;;;;;;14.40;10.15;;;;;;;1.14;95.27;98555.44;1695912;83;21329;-65
2021/03/19 05:26:07;;;;;;;17.52;12.00;;;;;;;1.21;95.63;98562.11;1683388;83;21633;-66
2021/03/19 05:28:36;;;;;;;19.02;13.05;;;;;;;1.29;95.57;98556.06;1695882;83;21304;-64
2021/03/19 05:31:05;;;;;;;18.55;13.98;;;;;;;1.34;95.03;98562.61;1666175;86;21158;-65
2021/03/19 05:33:47;;;;;;;16.80;11.95;;;;;;;1.35;95.05;98555.06;1697269;84;21315;-65
2021/03/19 05:36:20;;;;;;;20.70;14.13;;;;;;;1.41;94.92;98557.84;1697227;83;21304;-65
2021/03/19 05:38:48;;;;;;;16.12;12.15;;;;;;;1.48;94.66;98563.64;1697614;84;21332;-64
2021/03/19 05:41:18;;;;;;;17.73;13.15;;;;;;;1.41;94.17;98562.92;1661016;86;21162;-64
2021/03/19 05:44:09;;;;;;;16.87;12.95;;;;;;;1.40;94.19;98570.09;1669145;85;21318;-62
2021/03/19 05:46:53;;;;;;;15.85;11.80;;;;;;;1.51;94.50;98572.66;1884852;74;22199;-64
2021/03/19 05:49:26;;;;;;;19.67;12.33;;;;;;;1.52;94.40;98573.52;1840739;77;21267;-66
2021/03/19 05:52:01;;;;;;;17.52;11.40;;;;;;;1.55;94.18;98579.12;1795825;79;21175;-61
2021/03/19 05:54:38;;;;;;;14.20;10.20;;;;;;;1.57;93.64;98583.87;1790348;79;21714;-66
2021/03/19 05:57:14;;;;;;;15.08;9.78;;;;;;;1.52;93.51;98584.55;1831446;77;21575;-66
2021/03/19 05:59:53;;;;;;;13.83;9.70;;;;;;;1.51;93.49;98582.83;1826930;77;21134;-62
2021/03/19 06:02:26;;;;;;;14.93;9.95;;;;;;;1.55;93.68;98586.76;1837480;77;21252;-63
2021/03/19 06:05:22;;;;;;;14.00;9.80;;;;;;;1.59;93.42;98593.31;1857349;77;21156;-63
2021/03/19 06:08:01;;;;;;;14.00;10.00;;;;;;;1.64;93.56;98589.69;1841192;77;21122;-64
2021/03/19 06:10:41;;;;;;;15.98;10.05;;;;;;;1.69;93.23;98588.20;1837702;77;21204;-63
2021/03/19 06:13:27;;;;;;;12.98;9.10;;;;;;;1.78;93.56;98600.02;1843674;76;21527;-62
2021/03/19 06:16:37;;;;;;;17.70;11.08;;;;;;;1.86;92.95;98601.18;1848750;77;21081;-58
2021/03/19 06:19:33;;;;;;;17.02;11.38;;;;;;;1.86;93.08;98606.68;1838274;77;21138;-60
2021/03/19 06:22:23;;;;;;;17.98;11.05;;;;;;;1.99;93.36;98597.44;1826307;77;21170;-63
2021/03/19 06:25:20;;;;;;;14.40;9.58;;;;;;;1.99;92.58;98608.03;1825596;78;21115;-56
2021/03/19 06:27:56;;;;;;;15.43;10.15;;;;;;;1.90;91.85;98614.87;1826240;78;21127;-65
2021/03/19 06:30:41;;;;;;;17.62;11.08;;;;;;;1.79;92.03;98609.38;1843708;77;21664;-63
2021/03/19 06:33:26;;;;;;;16.90;12.03;;;;;;;1.75;92.40;98611.31;1858067;77;21274;-62
2021/03/19 06:36:21;;;;;;;19.48;11.78;;;;;;;1.82;92.55;98615.84;1850850;77;21154;-64
2021/03/19 06:39:11;;;;;;;14.70;9.43;;;;;;;1.83;91.96;98614.16;1779837;80;21126;-65
2021/03/19 06:41:39;;;;;;;18.05;12.28;;;;;;;1.82;91.85;98611.17;1844617;77;21284;-61
2021/03/19 06:44:18;;;;;;;19.67;12.65;;;;;;;1.75;91.94;98620.22;1835907;76;21583;-63
2021/03/19 06:46:58;;;;;;;19.52;13.03;;;;;;;1.76;92.11;98620.70;1802374;78;21154;-63
2021/03/19 06:49:29;;;;;;;21.00;12.68;;;;;;;1.80;92.32;98622.55;1808785;79;21123;-61
2021/03/19 06:52:23;;;;;;;20.65;13.88;;;;;;;1.90;92.20;98622.52;1813590;79;21561;-66
2021/03/19 06:55:02;;;;;;;19.42;11.80;;;;;;;2.06;92.34;98623.97;1813668;78;21284;-60
2021/03/19 06:57:48;;;;;;;20.90;12.75;;;;;;;2.17;91.94;98616.37;1813241;78;21111;-64
2021/03/19 07:00:42;;;;;;;15.08;10.70;;;;;;;2.18;91.34;98620.64;1804436;79;21320;-63
2021/03/19 07:03:33;;;;;;;16.50;11.85;;;;;;;2.28;91.00;98623.14;1780807;79;21281;-64
2021/03/19 07:06:45;;;;;;;22.58;13.43;;;;;;;2.31;90.69;98619.42;1780766;79;21131;-63
2021/03/19 07:09:34;;;;;;;21.95;13.85;;;;;;;2.24;90.15;98622.16;1781209;79;21150;-65
2021/03/19 07:12:47;;;;;;;16.50;11.05;;;;;;;2.20;90.30;98620.30;1782718;77;21088;-64
2021/03/19 07:15:57;;;;;;;15.98;10.53;;;;;;;2.21;90.11;98627.11;1797236;78;21146;-62
2021/03/19 07:19:18;;;;;;;21.35;12.03;;;;;;;2.19;90.07;98631.30;1789303;80;21161;-64
2021/03/19 07:22:18;;;;;;;17.17;11.68;;;;;;;2.18;89.88;98632.95;1796922;80;21314;-63
2021/03/19 07:25:03;;;;;;;18.23;12.90;;;;;;;2.05;89.64;98640.06;1796880;80;21181;-63
2021/03/19 07:27:42;;;;;;;21.42;13.03;;;;;;;2.03;90.15;98638.72;1787735;79;21118;-59
2021/03/19 07:30:30;;;;;;;23.15;15.32;;;;;;;2.08;90.09;98645.27;1786567;79;21111;-65
2021/03/19 07:33:27;;;;;;;18.37;13.60;;;;;;;2.08;90.07;98642.73;1780937;80;21285;-61
2021/03/19 07:36:35;;;;;;;21.90;15.03;;;;;;;2.10;90.13;98647.48;1780722;79;21331;-66
2021/03/19 07:39:12;;;;;;;21.55;14.55;;;;;;;2.15;90.16;98644.30;1781045;80;21147;-61
2021/03/19 07:42:14;;;;;;;17.32;11.78;;;;;;;2.25;90.14;98641.70;1780997;80;21269;-64
2021/03/19 07:44:52;;;;;;;14.70;10.88;;;;;;;2.35;89.83;98648.03;1750151;80;21126;-65
2021/03/19 07:47:41;;;;;;;16.97;11.22;;;;;;;2.26;89.38;98640.02;1776232;80;21265;-63
2021/03/19 07:50:39;;;;;;;15.83;10.88;;;;;;;2.29;89.27;98648.67;1780900;80;21300;-64
2021/03/19 07:53:18;;;;;;;16.57;11.53;;;;;;;2.32;88.85;98646.23;1727946;80;21287;-61
2021/03/19 07:56:14;;;;;;;15.25;11.00;;;;;;;2.34;89.10;98651.36;1749578;80;21569;-64
2021/03/19 07:59:02;;;;;;;16.82;11.18;;;;;;;2.39;88.58;98646.94;1780396;80;21174;-62
2021/03/19 08:01:41;;;;;;;16.40;11.45;;;;;;;2.41;88.56;98651.20;1748502;80;21150;-61
2021/03/19 08:04:33;;;;;;;16.05;11.88;;;;;;;2.47;88.93;98645.05;1734233;82;21285;-61
2021/03/19 08:07:26;;;;;;;;;;;;;;;2.61;88.57;98650.27;1771468;80;21111;-63
2021/03/19 08:10:04;;;;;;;17.27;11.18;;;;;;;2.78;88.59;98653.05;1779152;80;20168;-64
2021/03/19 08:13:15;;;;;;;13.40;9.48;;;;;;;3.07;87.35;98651.08;1779287;81;21281;-63
2021/03/19 08:15:57;;;;;;;18.50;13.35;;;;;;;3.21;85.92;98652.45;1748439;81;21275;-63
2021/03/19 08:18:36;;;;;;;19.70;12.15;;;;;;;3.31;85.26;98648.51;1747085;82;21300;-65
2021/03/19 08:21:15;;;;;;;15.35;11.38;;;;;;;3.26;85.00;98653.47;1725346;80;21147;-62
2021/03/19 08:23:56;;;;;;;12.78;10.13;;;;;;;3.27;84.52;98652.65;1779081;81;21943;-63
2021/03/19 08:27:11;;;;;;;12.70;8.83;;;;;;;3.14;84.53;98650.48;1779432;80;21143;-64
2021/03/19 08:30:14;;;;;;;14.58;10.00;;;;;;;3.00;84.83;98651.26;1748592;82;21157;-62
2021/03/19 08:32:50;;;;;;;12.70;9.40;;;;;;;2.88;84.54;98662.31;1730283;80;21308;-64
2021/03/19 08:35:41;;;;;;;14.45;10.50;;;;;;;2.73;84.60;98664.75;1749004;80;21280;-63
2021/03/19 08:38:38;;;;;;;13.70;8.85;;;;;;;2.70;84.90;98665.91;1735191;82;21158;-64
2021/03/19 08:41:23;;;;;;;16.37;10.72;;;;;;;2.70;85.43;98672.28;1763732;80;21154;-63
2021/03/19 08:44:01;;;;;;;12.43;9.13;;;;;;;2.91;85.97;98666.23;1754037;80;21397;-61
2021/03/19 08:46:53;;;;;;;13.93;9.65;;;;;;;2.97;84.98;98670.27;1765774;80;21157;-59
2021/03/19 08:49:42;;;;;;;12.88;9.15;;;;;;;2.86;84.91;98669.02;1763631;80;21276;-61
2021/03/19 08:52:30;;;;;;;13.18;9.70;;;;;;;2.91;84.75;98672.61;1763473;80;21130;-63
2021/03/19 08:55:22;;;;;;;12.78;8.68;;;;;;;3.06;84.75;98669.75;1763430;80;21149;-61
2021/03/19 08:57:55;;;;;;;11.97;8.85;;;;;;;3.15;83.89;98675.16;1763559;80;21170;-65
2021/03/19 09:00:33;;;;;;;11.65;8.63;;;;;;;3.18;83.72;98674.87;1763511;80;21163;-61
2021/03/19 09:03:06;;;;;;;20.95;9.40;;;;;;;3.18;83.20;98667.23;1771988;80;21205;-60
2021/03/19 09:05:41;;;;;;;10.95;7.17;;;;;;;3.14;82.80;98674.30;1763544;80;21292;-63
2021/03/19 09:08:28;;;;;;;10.55;7.08;;;;;;;2.98;82.37;98674.58;1756326;80;21149;-60
2021/03/19 09:11:01;;;;;;;12.88;7.60;;;;;;;2.89;82.17;98673.81;1763317;81;21300;-62
2021/03/19 09:13:30;;;;;;;9.60;6.37;;;;;;;2.99;82.62;98682.67;1764202;80;21181;-63
2021/03/19 09:16:04;;;;;;;11.22;7.03;;;;;;;3.09;82.46;98677.09;1790312;80;21264;-63
2021/03/19 09:18:42;;;;;;;9.80;6.95;;;;;;;3.18;81.87;98677.43;1787172;80;21339;-61
2021/03/19 09:21:32;;;;;;;11.22;7.65;;;;;;;3.24;82.00;98676.77;1794837;79;21312;-62
2021/03/19 09:24:06;;;;;;;10.60;7.25;;;;;;;3.33;81.82;98679.62;1794952;80;21135;-60
2021/03/19 09:26:51;;;;;;;10.28;7.17;;;;;;;3.41;81.35;98679.89;1786967;80;21142;-64
2021/03/19 09:29:34;;;;;;;9.73;7.03;;;;;;;3.42;81.23;98680.37;1776770;80;21231;-60
2021/03/19 09:32:24;;;;;;;12.53;8.53;;;;;;;3.38;80.59;98680.65;1781375;79;21106;-63
2021/03/19 09:34:57;;;;;;;12.35;8.65;;;;;;;3.34;80.64;98683.06;1778298;80;21154;-63
2021/03/19 09:37:40;;;;;;;12.18;7.78;;;;;;;3.39;80.96;98684.95;1779810;80;21118;-62
2021/03/19 09:40:14;;;;;;;12.37;8.65;;;;;;;3.50;80.86;98684.05;1763587;80;21327;-61
2021/03/19 09:42:49;;;;;;;10.53;7.62;;;;;;;3.61;80.64;98689.13;1763105;81;21154;-62
2021/03/19 09:45:23;;;;;;;12.70;8.38;;;;;;;3.72;80.24;98692.45;1763727;80;21169;-61
2021/03/19 09:48:02;;;;;;;14.38;8.95;;;;;;;3.80;79.50;98691.02;1778660;79;21154;-63
2021/03/19 09:50:34;;;;;;;13.80;9.18;;;;;;;3.79;78.37;98686.70;1745693;81;21336;-65
2021/03/19 09:53:16;;;;;;;13.65;8.08;;;;;;;3.74;78.55;98692.06;1781018;80;21146;-61
2021/03/19 09:55:51;;;;;;;10.28;6.83;;;;;;;3.70;78.78;98689.83;1781188;80;21139;-62
2021/03/19 09:58:25;;;;;;;9.00;5.85;;;;;;;3.62;77.93;98688.30;1776053;80;21244;-64
2021/03/19 10:01:00;;;;;;;10.55;6.92;;;;;;;3.50;78.22;98692.97;1749412;80;21107;-62
2021/03/19 10:03:49;;;;;;;11.15;7.87;;;;;;;3.54;78.58;98696.52;1750189;80;21175;-63
2021/03/19 10:06:29;;;;;;;10.13;6.85;;;;;;;3.63;78.58;98693.84;1750142;82;21296;-65
2021/03/19 10:09:25;;;;;;;9.50;6.58;;;;;;;3.66;78.49;98693.08;1761090;80;21261;-62
2021/03/19 10:12:03;;;;;;;11.78;9.13;;;;;;;3.70;78.82;98697.07;1767364;80;21514;-61
2021/03/19 10:14:42;;;;;;;12.40;7.65;;;;;;;3.75;79.11;98691.27;1768498;80;21142;-63
2021/03/19 10:17:28;;;;;;;12.05;7.70;;;;;;;3.73;79.29;98700.55;1763123;80;21327;-61
2021/03/19 10:20:14;;;;;;;10.55;7.67;;;;;;;3.77;79.31;98694.75;1766843;80;21142;-63
2021/03/19 10:22:46;;;;;;;10.85;7.85;;;;;;;3.77;78.77;98701.12;1768690;80;21260;-62
2021/03/19 10:25:29;;;;;;;9.93;7.62;;;;;;;3.73;78.96;98700.55;1733230;82;21285;-61
2021/03/19 10:28:04;;;;;;;9.80;7.03;;;;;;;3.65;78.68;98703.70;1807444;79;21122;-61
2021/03/19 10:30:44;;;;;;;11.25;7.90;;;;;;;3.60;78.60;98701.41;1803824;79;21264;-64
2021/03/19 10:33:30;;;;;;;11.35;7.85;;;;;;;3.75;78.78;98705.30;1804436;79;21130;-61
2021/03/19 10:36:13;;;;;;;10.15;7.45;;;;;;;3.91;78.41;98701.16;1808646;79;21122;-63
2021/03/19 10:38:56;;;;;;;8.45;6.22;;;;;;;4.13;77.79;98702.31;1805211;79;21319;-63
2021/03/19 10:41:48;;;;;;;11.03;6.85;;;;;;;4.27;75.74;98701.88;1775914;79;21118;-64
2021/03/19 10:44:23;;;;;;;;;;;;;;;4.30;75.20;98704.53;1808313;79;21158;-61
2021/03/19 10:46:58;;;;;;;11.10;7.08;;;;;;;4.30;74.98;98700.69;1792408;79;20229;-66
2021/03/19 10:49:43;;;;;;;10.30;6.45;;;;;;;4.22;74.79;98700.87;1780718;80;21162;-63
2021/03/19 10:52:30;;;;;;;10.38;7.87;;;;;;;4.20;74.57;98698.67;1789355;80;21153;-63
2021/03/19 10:55:17;;;;;;;10.53;6.28;;;;;;;4.19;74.81;98704.19;1773538;80;21125;-62
2021/03/19 10:57:45;;;;;;;10.40;7.20;;;;;;;4.19;74.09;98695.67;1789122;80;21130;-62
2021/03/19 11:00:29;;;;;;;10.23;7.22;;;;;;;4.22;74.67;98699.17;1777207;80;21284;-62
2021/03/19 11:03:01;;;;;;;11.95;7.40;;;;;;;4.47;74.86;98693.15;1774433;80;21087;-64
2021/03/19 11:05:29;;;;;;;8.88;6.40;;;;;;;4.66;74.06;98698.84;1772559;79;21122;-61
2021/03/19 11:07:57;;;;;;;10.58;6.97;;;;;;;4.79;73.50;98699.66;1772383;80;21288;-61
2021/03/19 11:10:43;;;;;;;7.58;5.25;;;;;;;4.99;73.14;98697.27;1773296;80;21095;-61
2021/03/19 11:13:25;;;;;;;7.30;5.03;;;;;;;5.18;71.00;98698.64;1768045;79;21279;-63
2021/03/19 11:16:04;;;;;;;8.45;5.67;;;;;;;5.46;70.38;98698.54;1773220;80;21260;-64
2021/03/19 11:18:39;;;;;;;8.20;5.53;;;;;;;5.71;69.30;98695.80;1772668;80;21268;-61
2021/03/19 11:21:13;;;;;;;7.45;5.85;;;;;;;5.97;68.39;98696.91;1771983;79;21146;-60
2021/03/19 11:23:49;;;;;;;7.75;5.42;;;;;;;6.08;67.89;98697.63;1772811;80;21126;-61
2021/03/19 11:26:29;;;;;;;7.37;5.75;;;;;;;6.33;65.81;98696.05;1781111;79;21141;-63
2021/03/19 11:29:23;;;;;;;6.85;5.30;;;;;;;6.50;64.79;98696.89;1789274;80;21381;-62
2021/03/19 11:32:14;;;;;;;7.45;5.20;;;;;;;6.71;64.31;98696.92;1789505;80;21158;-62
2021/03/19 11:34:54;;;;;;;6.87;4.58;;;;;;;6.92;62.56;98701.25;1788132;80;21185;-62
2021/03/19 11:37:28;;;;;;;7.95;5.28;;;;;;;6.82;60.94;98694.19;1789352;80;21162;-63
2021/03/19 11:40:24;;;;;;;6.30;4.83;;;;;;;6.59;61.38;98693.69;1789252;80;21158;-62
2021/03/19 11:42:59;;;;;;;4.97;3.37;;;;;;;6.45;61.77;98695.06;1789395;79;21161;-62
2021/03/19 11:45:36;;;;;;;6.55;4.47;;;;;;;6.26;58.67;98698.91;1789437;80;21139;-62
2021/03/19 11:48:31;;;;;;;5.95;3.80;;;;;;;6.13;59.85;98692.63;1793498;78;21165;-63
2021/03/19 11:51:21;;;;;;;6.62;4.12;;;;;;;6.13;60.29;98691.34;1781703;80;21166;-62
2021/03/19 11:53:49;;;;;;;8.20;4.62;;;;;;;6.17;60.23;98695.70;1763656;80;21553;-59
2021/03/19 11:56:18;;;;;;;7.03;4.37;;;;;;;6.26;60.16;98695.92;1762612;80;21114;-62
2021/03/19 11:58:46;;;;;;;7.05;4.50;;;;;;;6.42;59.86;98695.00;1776514;80;21137;-63
2021/03/19 12:01:14;;;;;;;7.97;4.25;;;;;;;6.61;59.83;98692.42;1780691;80;21241;-65
2021/03/19 12:03:53;;;;;;;9.48;5.30;;;;;;;6.83;59.39;98683.52;1778964;80;21315;-63
2021/03/19 12:06:29;;;;;;;6.40;4.05;;;;;;;7.05;58.25;98689.55;1782815;80;21099;-63
2021/03/19 12:08:57;;;;;;;8.65;4.22;;;;;;;7.25;58.07;98686.48;1793132;78;21142;-63
2021/03/19 12:11:37;;;;;;;6.95;4.50;;;;;;;7.27;57.97;98693.81;1779566;80;21335;-62
2021/03/19 12:14:09;;;;;;;6.78;4.65;;;;;;;7.49;56.63;98693.39;1758179;81;21413;-63
2021/03/19 12:16:37;;;;;;;7.75;4.40;;;;;;;7.58;56.52;98693.97;1778617;80;21117;-62
2021/03/19 12:19:05;;;;;;;8.05;5.00;;;;;;;7.52;57.02;98694.73;1760346;81;21256;-61
2021/03/19 12:21:33;;;;;;;7.12;4.55;;;;;;;7.26;57.61;98691.66;1793327;80;21201;-61
2021/03/19 12:24:02;;;;;;;6.65;4.25;;;;;;;7.16;57.48;98689.33;1761900;81;21142;-61
2021/03/19 12:26:31;;;;;;;7.53;4.80;;;;;;;7.04;57.74;98687.80;1792900;80;21141;-61
2021/03/19 12:28:59;;;;;;;6.55;4.65;;;;;;;6.86;57.85;98693.83;1793273;80;21279;-60
2021/03/19 12:31:26;;;;;;;6.62;3.85;;;;;;;6.74;57.98;98694.03;1761903;81;21195;-60